Time;durP1;ratioP1;P1;durP2;ratioP2;P2;SDS_P1;SDS_P2;PMS_P1;PMS_P2;Temp;Humidity;BMP_temperature;BMP_pressure;BME280_temperature;BME280_humidity;BME280_pressure;Samples;Min_cycle;Max_cycle;Signal;HPM_P1;HPM_P2
2023/12/29 00:01:52;;;;;;;470.77;282.55;;;;;;;-1.67;93.91;100148.44;4908070;29;20052;-88
2023/12/29 00:04:54;;;;;;;478.60;297.92;;;;;;;-1.69;93.79;100139.94;4878073;29;20052;-85
2023/12/29 00:07:40;;;;;;;457.63;280.27;;;;;;;-1.74;93.87;100135.09;4892776;29;20049;-86
2023/12/29 00:10:26;;;;;;;465.25;279.02;;;;;;;-1.77;94.01;100134.53;4879434;29;20040;-82
2023/12/29 00:13:13;;;;;;;441.13;253.52;;;;;;;-1.83;93.65;100132.44;4900419;29;20053;-80
2023/12/29 00:15:58;;;;;;;432.20;245.35;;;;;;;-1.81;94.23;100127.94;4886074;29;20045;-81
2023/12/29 00:18:43;;;;;;;402.27;224.10;;;;;;;-1.80;93.36;100119.16;4892143;29;20052;-81
2023/12/29 00:21:29;;;;;;;380.85;214.73;;;;;;;-1.79;93.72;100126.00;4885964;29;20439;-82
2023/12/29 00:24:15;;;;;;;377.83;215.38;;;;;;;-1.82;94.02;100131.47;4899928;29;20056;-80
2023/12/29 00:27:09;;;;;;;392.58;216.88;;;;;;;-1.91;93.59;100118.28;4879312;29;20052;-81
2023/12/29 00:29:54;;;;;;;403.08;218.55;;;;;;;-1.84;94.31;100130.81;4898276;29;20044;-81
2023/12/29 00:32:42;;;;;;;408.63;217.77;;;;;;;-1.79;94.53;100136.44;4898212;29;20044;-81
2023/12/29 00:35:33;;;;;;;418.13;222.80;;;;;;;-1.71;94.12;100136.63;4899752;29;20484;-81
2023/12/29 00:38:39;;;;;;;412.58;224.43;;;;;;;-1.70;93.58;100135.66;4871239;29;20052;-82
2023/12/29 00:45:22;;;;;;;383.30;206.60;;;;;;;-1.81;93.82;100152.22;4877699;29;20052;-85
2023/12/29 00:48:21;;;;;;;413.60;227.38;;;;;;;-1.81;94.25;100148.78;4881646;29;20056;-87
2023/12/29 00:51:10;;;;;;;429.63;242.15;;;;;;;-1.81;93.99;100152.22;4882708;29;20049;-87
2023/12/29 00:54:02;;;;;;;435.80;251.30;;;;;;;-1.81;93.67;100152.22;4893441;29;20056;-87
2023/12/29 00:57:15;;;;;;;438.88;255.43;;;;;;;-1.88;93.49;100145.84;4892481;29;20040;-86
2023/12/29 01:00:41;;;;;;;452.88;271.60;;;;;;;-1.90;94.29;100147.78;4898594;29;20044;-86
2023/12/29 01:03:39;;;;;;;460.95;261.80;;;;;;;-1.88;93.88;100136.28;4880175;29;20052;-86
2023/12/29 01:06:31;;;;;;;457.63;270.83;;;;;;;-1.89;94.15;100145.03;4872765;29;20045;-86
2023/12/29 01:09:25;;;;;;;464.85;270.38;;;;;;;-1.98;94.35;100135.34;4866872;29;20049;-87
2023/12/29 01:12:53;;;;;;;460.70;275.95;;;;;;;-1.98;94.12;100140.56;4878213;29;20488;-81
2023/12/29 01:19:04;;;;;;;461.27;281.85;;;;;;;-2.02;93.44;100147.00;4875434;29;20403;-81
2023/12/29 01:21:52;;;;;;;457.48;274.98;;;;;;;-2.02;93.87;100162.63;4873016;29;20056;-86
2023/12/29 01:24:38;;;;;;;454.42;268.85;;;;;;;-2.03;93.85;100149.75;4884982;29;20087;-85
2023/12/29 01:27:29;;;;;;;448.83;276.17;;;;;;;-1.95;93.61;100142.91;4890814;29;20495;-81
2023/12/29 01:30:20;;;;;;;454.48;280.38;;;;;;;-1.99;94.10;100141.53;4897125;29;20052;-80
2023/12/29 01:33:05;;;;;;;462.38;274.30;;;;;;;-2.04;94.25;100130.66;4898681;29;20056;-81
2023/12/29 01:35:51;;;;;;;448.25;264.70;;;;;;;-2.08;94.19;100128.44;4890967;29;20048;-85
2023/12/29 01:38:36;;;;;;;455.30;273.08;;;;;;;-2.05;94.33;100120.38;4904242;29;20407;-86
2023/12/29 01:41:23;;;;;;;462.00;284.50;;;;;;;-2.05;93.53;100126.41;4878079;29;20045;-81
2023/12/29 01:44:21;;;;;;;460.38;275.05;;;;;;;-2.03;94.54;100127.13;4891059;29;20044;-81
2023/12/29 01:47:17;;;;;;;450.15;276.33;;;;;;;-2.11;93.58;100119.09;4885016;29;20044;-80
2023/12/29 01:50:06;;;;;;;439.23;259.92;;;;;;;-2.09;94.46;100122.41;4890785;29;20049;-85
2023/12/29 01:52:53;;;;;;;433.30;257.98;;;;;;;-2.18;93.44;100118.78;4872244;29;20407;-81
2023/12/29 01:55:41;;;;;;;415.63;241.55;;;;;;;-2.16;94.56;100111.66;4871967;29;20053;-80
2023/12/29 01:58:27;;;;;;;405.80;235.82;;;;;;;-2.20;94.55;100105.03;4878091;29;20399;-86
2023/12/29 02:01:13;;;;;;;392.27;219.88;;;;;;;-2.24;94.08;100103.66;4877958;29;20049;-86
2023/12/29 02:04:04;;;;;;;395.95;223.25;;;;;;;-2.22;94.61;100106.97;4877922;29;20052;-86
2023/12/29 02:07:29;;;;;;;398.33;227.40;;;;;;;-2.23;94.71;100094.06;4875142;29;20048;-85
2023/12/29 02:10:35;;;;;;;412.45;238.82;;;;;;;-2.25;94.15;100091.59;4883022;29;20044;-85
2023/12/29 02:13:22;;;;;;;405.25;228.30;;;;;;;-2.34;94.12;100085.34;4873226;29;20057;-82
2023/12/29 02:16:23;;;;;;;335.75;188.68;;;;;;;-2.18;94.22;100099.72;4864762;29;20167;-81
2023/12/29 02:19:34;;;;;;;297.02;158.55;;;;;;;-2.16;94.01;100100.44;4884950;29;20048;-80
2023/12/29 02:22:27;;;;;;;359.20;196.25;;;;;;;-2.22;93.91;100098.34;4884356;29;20041;-81
2023/12/29 02:25:19;;;;;;;342.27;183.40;;;;;;;-2.23;93.95;100092.28;4890999;29;20048;-81
2023/12/29 02:28:34;;;;;;;340.38;188.25;;;;;;;-2.30;93.85;100078.13;4877664;29;20399;-79
2023/12/29 02:31:22;;;;;;;357.80;191.50;;;;;;;-2.24;94.41;100089.81;4879884;29;20060;-82
2023/12/29 02:34:11;;;;;;;392.83;223.60;;;;;;;-2.28;94.94;100089.25;4890423;29;20283;-86
2023/12/29 02:36:57;;;;;;;394.75;219.15;;;;;;;-2.30;94.49;100098.13;4890413;29;20057;-85
2023/12/29 02:39:43;;;;;;;354.67;193.63;;;;;;;-2.37;94.16;100092.59;4903610;29;20484;-85
2023/12/29 02:42:28;;;;;;;345.52;186.73;;;;;;;-2.36;94.45;100079.44;4879596;29;20045;-85
2023/12/29 02:45:24;;;;;;;323.92;171.70;;;;;;;-2.43;94.37;100082.69;4868208;29;20044;-87
2023/12/29 02:48:09;;;;;;;320.02;171.77;;;;;;;-2.50;93.95;100077.16;4881250;29;20048;-81
2023/12/29 02:50:58;;;;;;;303.42;159.90;;;;;;;-2.49;93.93;100076.19;4868617;29;20488;-81
2023/12/29 02:53:44;;;;;;;281.23;152.32;;;;;;;-2.52;94.29;100073.03;4880981;29;20040;-81
2023/12/29 02:56:29;;;;;;;272.60;144.07;;;;;;;-2.59;93.55;100059.69;4901841;29;20040;-81
2023/12/29 02:59:17;;;;;;;273.27;144.70;;;;;;;-2.58;94.09;100053.50;4906882;29;20049;-81
2023/12/29 03:02:02;;;;;;;248.63;132.38;;;;;;;-2.61;93.96;100057.19;4867608;29;20052;-81
2023/12/29 03:04:48;;;;;;;237.57;128.05;;;;;;;-2.58;94.10;100045.72;4880713;29;20060;-86
2023/12/29 03:07:33;;;;;;;258.65;136.00;;;;;;;-2.60;94.38;100045.00;4893031;29;20048;-85
2023/12/29 03:10:24;;;;;;;292.83;149.43;;;;;;;-2.55;93.98;100042.84;4880263;29;20048;-86
2023/12/29 03:13:09;;;;;;;295.70;154.02;;;;;;;-2.43;94.11;100056.66;4888898;29;20052;-80
2023/12/29 03:15:56;;;;;;;290.55;153.60;;;;;;;-2.43;94.34;100056.66;4906509;29;20056;-80
2023/12/29 03:18:42;;;;;;;298.23;161.10;;;;;;;-2.39;93.98;100053.66;4893161;29;20036;-84
2023/12/29 03:21:27;;;;;;;336.42;190.93;;;;;;;-2.35;94.31;100054.22;4893364;29;20049;-79
2023/12/29 03:24:18;;;;;;;416.05;226.20;;;;;;;-2.40;94.91;100059.00;4900588;29;20404;-79
2023/12/29 03:27:03;;;;;;;394.80;226.38;;;;;;;-2.43;94.50;100057.47;4906451;29;20407;-79
2023/12/29 03:29:48;;;;;;;381.42;207.77;;;;;;;-2.48;94.02;100057.00;4887044;29;20048;-79
2023/12/29 03:32:34;;;;;;;365.23;200.95;;;;;;;-2.54;94.31;100060.13;4901024;29;20048;-84
2023/12/29 03:35:20;;;;;;;360.52;192.00;;;;;;;-2.55;94.40;100068.88;4901067;29;20044;-79
2023/12/29 03:38:07;;;;;;;283.38;141.48;;;;;;;-2.53;93.79;100067.00;4899736;29;20052;-84
2023/12/29 03:40:52;;;;;;;276.35;141.63;;;;;;;-2.60;94.37;100063.22;4898921;29;20036;-84
2023/12/29 03:43:39;;;;;;;283.98;139.60;;;;;;;-2.66;94.51;100061.13;4900795;29;20052;-84
2023/12/29 03:46:24;;;;;;;291.38;136.95;;;;;;;-2.72;94.15;100066.84;4900035;29;20406;-84
2023/12/29 03:49:10;;;;;;;313.17;138.18;;;;;;;-2.76;93.15;100065.41;4899283;29;20495;-84
2023/12/29 03:51:55;;;;;;;360.60;159.85;;;;;;;-2.77;93.30;100069.78;4900020;29;20041;-84
2023/12/29 03:54:41;;;;;;;322.35;143.52;;;;;;;-2.78;94.10;100067.31;4900916;29;20379;-79
2023/12/29 03:57:26;;;;;;;341.67;152.43;;;;;;;-2.78;93.97;100065.53;4900571;29;20053;-80
2023/12/29 04:00:13;;;;;;;262.38;127.95;;;;;;;-2.77;93.16;100061.16;4900497;29;20396;-80
2023/12/29 04:02:58;;;;;;;244.48;120.95;;;;;;;-2.72;93.70;100066.84;4891809;29;20062;-84
2023/12/29 04:05:43;;;;;;;199.93;93.15;;;;;;;-2.76;93.17;100068.00;4886543;29;20053;-85
2023/12/29 04:08:29;;;;;;;154.15;76.75;;;;;;;-2.78;93.65;100069.94;4886222;29;20045;-85
2023/12/29 04:11:14;;;;;;;133.07;70.28;;;;;;;-2.84;93.73;100059.06;4900150;29;20045;-85
2023/12/29 04:14:00;;;;;;;129.13;64.78;;;;;;;-2.84;94.00;100063.44;4900287;29;20057;-84
2023/12/29 04:16:45;;;;;;;133.57;66.22;;;;;;;-2.85;93.44;100057.41;4900629;29;20049;-80
2023/12/29 04:19:31;;;;;;;130.43;66.68;;;;;;;-2.86;94.00;100058.34;4905866;29;20052;-79
2023/12/29 04:22:17;;;;;;;118.07;58.83;;;;;;;-2.88;94.78;100056.84;4892394;29;20048;-79
2023/12/29 04:25:03;;;;;;;414.25;143.35;;;;;;;-2.77;94.61;100063.75;4905426;29;20492;-78
2023/12/29 04:27:48;;;;;;;322.17;116.90;;;;;;;-2.74;94.29;100059.13;4900220;29;20048;-85
2023/12/29 04:30:34;;;;;;;214.00;107.07;;;;;;;-2.74;94.47;100069.53;4906057;29;20045;-85
2023/12/29 04:33:20;;;;;;;191.50;93.90;;;;;;;-2.72;94.97;100075.47;4905257;29;20487;-85
2023/12/29 04:36:08;;;;;;;196.40;94.72;;;;;;;-2.77;94.66;100068.97;4899831;29;20048;-80
2023/12/29 04:38:53;;;;;;;186.50;94.40;;;;;;;-2.79;93.86;100063.88;4899768;29;20056;-84
2023/12/29 04:41:41;;;;;;;202.93;106.18;;;;;;;-2.85;94.05;100070.41;4905200;29;20395;-85
2023/12/29 04:44:26;;;;;;;193.88;103.22;;;;;;;-2.88;94.00;100068.06;4899745;29;20052;-79
2023/12/29 04:47:12;;;;;;;208.35;107.18;;;;;;;-2.88;94.71;100062.03;4899930;29;20391;-79
2023/12/29 04:49:58;;;;;;;228.70;114.85;;;;;;;-2.85;94.01;100059.16;4899530;29;20435;-79
2023/12/29 04:52:43;;;;;;;268.42;124.65;;;;;;;-2.73;94.60;100073.78;4899897;29;20489;-84
2023/12/29 04:55:29;;;;;;;240.85;107.07;;;;;;;-2.70;94.99;100055.31;4899480;29;20045;-83
2023/12/29 04:58:39;;;;;;;233.95;110.15;;;;;;;-2.68;95.01;100055.22;4899787;29;20511;-84
2023/12/29 05:01:25;;;;;;;224.38;107.18;;;;;;;-2.68;93.92;100068.22;4879337;29;20049;-84
2023/12/29 05:04:10;;;;;;;216.48;109.95;;;;;;;-2.72;94.01;100066.84;4890689;29;20052;-85
2023/12/29 05:06:56;;;;;;;222.82;119.07;;;;;;;-2.71;94.61;100081.50;4885317;29;20048;-79
2023/12/29 05:09:41;;;;;;;241.35;124.82;;;;;;;-2.66;95.15;100077.56;4885048;29;20052;-85
2023/12/29 05:12:27;;;;;;;253.93;128.30;;;;;;;-2.63;94.30;100081.72;4898963;29;20049;-84
2023/12/29 05:15:13;;;;;;;246.30;125.00;;;;;;;-2.69;95.11;100083.03;4891671;29;20044;-84
2023/12/29 05:17:58;;;;;;;254.95;125.13;;;;;;;-2.80;94.57;100075.25;4878332;29;20057;-85
2023/12/29 05:20:43;;;;;;;223.50;119.57;;;;;;;-2.88;95.06;100078.47;4885067;29;20052;-85
2023/12/29 05:23:29;;;;;;;243.77;123.30;;;;;;;-2.93;94.61;100083.19;4891292;29;20491;-85
2023/12/29 05:26:14;;;;;;;236.68;120.85;;;;;;;-2.97;95.11;100088.78;4903985;29;20048;-79
2023/12/29 05:29:02;;;;;;;230.40;118.70;;;;;;;-3.00;94.16;100084.66;4898874;29;20057;-84
2023/12/29 05:31:47;;;;;;;232.05;120.57;;;;;;;-3.01;94.75;100090.78;4898557;29;20048;-80
2023/12/29 05:34:33;;;;;;;248.95;128.23;;;;;;;-2.93;94.35;100091.00;4899012;29;20395;-85
2023/12/29 05:37:18;;;;;;;245.25;122.47;;;;;;;-2.94;94.44;100089.34;4898950;29;20052;-85
2023/12/29 05:40:05;;;;;;;247.95;128.80;;;;;;;-2.96;95.39;100087.81;4898821;29;20399;-85
2023/12/29 05:42:51;;;;;;;255.25;132.93;;;;;;;-2.97;94.37;100089.59;4898810;29;20048;-80
2023/12/29 05:45:36;;;;;;;246.57;126.57;;;;;;;-2.98;94.21;100085.31;4898842;29;20483;-80
2023/12/29 05:48:22;;;;;;;253.80;128.43;;;;;;;-2.96;93.97;100088.66;4904086;29;20048;-80
2023/12/29 05:51:09;;;;;;;278.13;139.73;;;;;;;-2.89;93.98;100110.63;4898570;29;20040;-81
2023/12/29 05:53:54;;;;;;;299.35;152.80;;;;;;;-2.88;95.38;100114.88;4890633;29;20048;-79
2023/12/29 05:56:39;;;;;;;374.17;194.35;;;;;;;-2.90;94.77;100111.56;4905016;29;20040;-85
2023/12/29 05:59:24;;;;;;;346.27;185.23;;;;;;;-2.93;94.90;100114.41;4884418;29;20056;-86
2023/12/29 06:02:10;;;;;;;363.65;184.30;;;;;;;-2.99;94.50;100117.50;4897810;29;20045;-80
2023/12/29 06:04:55;;;;;;;326.73;169.23;;;;;;;-3.06;94.60;100118.94;4898326;29;20411;-84
2023/12/29 06:07:41;;;;;;;316.02;159.77;;;;;;;-3.09;94.50;100126.97;4877881;29;20487;-79
2023/12/29 06:10:27;;;;;;;301.67;153.93;;;;;;;-3.14;94.73;100121.28;4865012;29;20048;-80
2023/12/29 06:13:12;;;;;;;269.58;135.75;;;;;;;-3.14;94.48;100131.69;4860103;29;20407;-80
2023/12/29 06:15:58;;;;;;;254.45;128.98;;;;;;;-3.14;94.32;100132.53;4880262;29;20052;-85
2023/12/29 06:18:43;;;;;;;248.35;129.25;;;;;;;-3.15;94.06;100140.44;4870055;29;20044;-80
2023/12/29 06:21:29;;;;;;;274.33;140.77;;;;;;;-3.15;94.41;100145.66;4878198;29;20074;-80
2023/12/29 06:24:15;;;;;;;249.60;133.80;;;;;;;-3.17;94.70;100142.34;4902360;29;20040;-80
2023/12/29 06:27:00;;;;;;;242.45;128.60;;;;;;;-3.12;94.19;100148.03;4902531;29;20139;-80
2023/12/29 06:29:46;;;;;;;230.95;124.28;;;;;;;-3.05;94.44;100150.00;4870172;29;20048;-84
2023/12/29 06:32:31;;;;;;;219.82;117.15;;;;;;;-2.94;94.11;100156.16;4885193;29;20060;-80
2023/12/29 06:35:17;;;;;;;232.57;120.68;;;;;;;-2.87;93.31;100154.72;4897466;29;20056;-80
2023/12/29 06:38:03;;;;;;;255.38;135.25;;;;;;;-2.78;94.45;100158.38;4901248;29;20040;-85
2023/12/29 06:40:48;;;;;;;305.60;146.07;;;;;;;-2.69;94.25;100176.69;4892914;29;20024;-85
2023/12/29 06:43:35;;;;;;;275.95;144.13;;;;;;;-2.58;93.87;100160.22;4891289;29;20045;-86
2023/12/29 06:46:20;;;;;;;340.35;170.55;;;;;;;-2.54;93.43;100169.44;4895195;29;20044;-86
2023/12/29 06:49:09;;;;;;;375.35;201.68;;;;;;;-2.47;92.18;100160.19;4894018;29;20048;-85
2023/12/29 06:51:54;;;;;;;368.90;196.23;;;;;;;-2.29;92.01;100163.06;4907675;29;20049;-84
2023/12/29 06:54:41;;;;;;;372.88;189.80;;;;;;;-2.05;91.08;100164.66;4876139;29;20048;-80
2023/12/29 06:57:27;;;;;;;359.40;181.90;;;;;;;-2.01;90.11;100169.47;4894819;29;20044;-80
2023/12/29 07:00:12;;;;;;;352.50;179.63;;;;;;;-1.65;88.88;100167.41;4889620;29;20041;-80
2023/12/29 07:02:57;;;;;;;369.63;190.63;;;;;;;-1.54;88.32;100159.50;4908868;29;20041;-81
2023/12/29 07:05:42;;;;;;;382.65;198.88;;;;;;;-1.58;87.19;100157.28;4901313;29;20048;-80
2023/12/29 07:08:28;;;;;;;405.25;209.68;;;;;;;-1.58;87.24;100152.88;4903363;29;20044;-86
2023/12/29 07:11:13;;;;;;;435.35;234.60;;;;;;;-1.65;87.54;100156.97;4902779;29;20049;-80
2023/12/29 07:13:59;;;;;;;447.85;243.27;;;;;;;-1.64;87.65;100149.00;4901929;29;20049;-80
2023/12/29 07:16:44;;;;;;;447.25;244.00;;;;;;;-1.61;87.92;100144.50;4902783;29;20497;-81
2023/12/29 07:19:36;;;;;;;441.77;238.57;;;;;;;-1.39;88.47;100133.91;4902638;29;20053;-85
2023/12/29 07:22:22;;;;;;;421.17;224.25;;;;;;;-1.14;88.51;100137.84;4902329;29;20400;-85
2023/12/29 07:25:07;;;;;;;398.25;210.75;;;;;;;-1.02;87.54;100149.84;4902571;29;20049;-81
2023/12/29 07:27:53;;;;;;;395.25;222.23;;;;;;;-0.73;87.68;100149.09;4901585;29;20049;-85
2023/12/29 07:30:39;;;;;;;397.42;221.63;;;;;;;-0.59;87.29;100147.91;4902162;29;20049;-85
2023/12/29 07:33:27;;;;;;;392.73;214.70;;;;;;;-0.39;86.88;100143.53;4902548;29;20040;-85
2023/12/29 07:36:11;;;;;;;358.92;199.32;;;;;;;-0.28;86.60;100152.06;4906915;29;20048;-85
2023/12/29 07:38:57;;;;;;;374.88;203.75;;;;;;;-0.07;86.88;100141.44;4901568;29;20052;-85
2023/12/29 07:41:43;;;;;;;306.85;155.05;;;;;;;0.15;85.66;100139.50;4901805;29;20048;-79
2023/12/29 07:44:28;;;;;;;310.85;158.43;;;;;;;0.25;84.99;100142.09;4901176;29;20040;-85
2023/12/29 07:47:14;;;;;;;261.38;132.98;;;;;;;0.32;85.27;100151.88;4901007;29;20057;-84
2023/12/29 07:49:59;;;;;;;231.70;123.15;;;;;;;0.33;85.25;100152.69;4906398;29;20048;-85
2023/12/29 07:52:44;;;;;;;223.45;118.35;;;;;;;0.39;84.93;100152.94;4901213;29;20044;-85
2023/12/29 07:55:30;;;;;;;221.48;117.50;;;;;;;0.54;85.58;100142.03;4900907;29;20048;-85
2023/12/29 07:58:16;;;;;;;234.98;125.10;;;;;;;0.63;84.59;100143.81;4905666;29;20060;-85
2023/12/29 08:01:05;;;;;;;223.35;114.60;;;;;;;0.79;84.52;100137.97;4901044;29;20036;-83
2023/12/29 08:03:51;;;;;;;247.10;130.13;;;;;;;0.98;83.94;100143.09;4900168;29;20048;-79
2023/12/29 08:06:39;;;;;;;252.13;139.63;;;;;;;1.25;83.90;100134.38;4902885;29;20040;-75
2023/12/29 08:09:28;;;;;;;257.50;141.88;;;;;;;1.42;83.59;100140.66;4903098;29;20056;-76
2023/12/29 08:12:13;;;;;;;256.20;132.77;;;;;;;1.68;83.94;100137.28;4903237;29;20048;-75
2023/12/29 08:15:00;;;;;;;236.80;128.30;;;;;;;1.79;84.39;100135.28;4900658;29;20056;-77
2023/12/29 08:17:47;;;;;;;207.23;109.85;;;;;;;2.17;83.20;100127.22;4900257;29;20388;-76
2023/12/29 08:20:32;;;;;;;198.18;110.25;;;;;;;2.30;82.98;100130.25;4904745;29;20048;-77
2023/12/29 08:23:19;;;;;;;182.82;97.22;;;;;;;2.45;81.59;100138.38;4900039;29;20395;-77
2023/12/29 08:26:04;;;;;;;185.93;105.13;;;;;;;2.41;81.52;100143.09;4902290;29;20501;-76
2023/12/29 08:28:50;;;;;;;200.77;105.68;;;;;;;2.46;82.42;100151.34;4910721;29;20041;-77
2023/12/29 08:31:35;;;;;;;190.18;107.35;;;;;;;2.64;82.14;100146.03;4917876;29;20048;-80
2023/12/29 08:34:21;;;;;;;206.23;112.22;;;;;;;2.81;82.59;100148.72;4909460;29;20049;-78
2023/12/29 08:37:07;;;;;;;196.10;109.30;;;;;;;2.88;81.80;100150.56;4907418;29;20483;-79
2023/12/29 08:39:52;;;;;;;197.30;109.55;;;;;;;3.04;81.51;100143.75;4899735;29;20049;-79
2023/12/29 08:42:37;;;;;;;233.50;132.10;;;;;;;3.19;81.36;100152.66;4905066;29;20054;-79
2023/12/29 08:45:23;;;;;;;200.02;109.97;;;;;;;3.30;80.58;100141.06;4899545;29;20048;-78
2023/12/29 08:48:10;;;;;;;210.77;114.32;;;;;;;3.24;80.48;100151.22;4899563;29;20044;-80
2023/12/29 08:50:55;;;;;;;215.38;118.05;;;;;;;3.41;80.47;100151.25;4899857;29;20044;-78
2023/12/29 08:53:41;;;;;;;223.23;116.95;;;;;;;3.36;80.51;100156.19;4905810;29;20048;-78
2023/12/29 08:56:29;;;;;;;222.30;123.97;;;;;;;3.38;80.71;100162.91;4899296;29;20049;-76
2023/12/29 08:59:14;;;;;;;231.75;125.38;;;;;;;3.47;80.09;100153.22;4899318;29;20044;-78
2023/12/29 09:02:00;;;;;;;214.88;116.55;;;;;;;3.38;80.15;100156.81;4898904;29;20044;-78
2023/12/29 09:04:46;;;;;;;193.65;102.55;;;;;;;3.56;81.04;100154.09;4899542;29;20053;-79
2023/12/29 09:07:31;;;;;;;173.57;96.28;;;;;;;3.69;80.32;100149.16;4905627;29;20048;-80
2023/12/29 09:10:18;;;;;;;152.95;80.15;;;;;;;3.60;80.38;100158.03;4899788;29;20056;-78
2023/12/29 09:13:03;;;;;;;148.90;80.82;;;;;;;3.65;80.28;100159.19;4899402;29;20053;-79
2023/12/29 09:15:49;;;;;;;111.95;57.45;;;;;;;3.46;80.71;100164.75;4899771;29;20491;-78
2023/12/29 09:18:34;;;;;;;65.38;35.60;;;;;;;3.17;81.81;100168.59;4899320;29;20396;-79
2023/12/29 09:21:20;;;;;;;100.32;47.67;;;;;;;3.13;82.64;100167.25;4899455;29;20068;-79
2023/12/29 09:24:05;;;;;;;78.63;36.97;;;;;;;3.20;82.52;100170.91;4898018;29;20048;-79
2023/12/29 09:26:52;;;;;;;69.18;34.35;;;;;;;3.13;82.36;100164.63;4905720;29;20055;-79
2023/12/29 09:29:37;;;;;;;89.45;44.72;;;;;;;3.15;82.46;100167.09;4899805;29;20079;-78
2023/12/29 09:32:23;;;;;;;88.32;47.38;;;;;;;3.29;82.49;100168.28;4891648;29;20051;-78
2023/12/29 09:35:10;;;;;;;89.60;49.28;;;;;;;3.48;82.38;100160.16;4899895;29;20068;-77
2023/12/29 09:37:57;;;;;;;94.30;47.05;;;;;;;3.85;81.59;100156.25;4900855;29;20067;-79
2023/12/29 09:40:42;;;;;;;93.93;48.17;;;;;;;3.87;80.70;100149.03;4899392;29;20051;-79
2023/12/29 09:43:28;;;;;;;99.35;48.88;;;;;;;4.14;80.72;100150.53;4904832;29;20051;-81
2023/12/29 09:46:21;;;;;;;94.88;49.63;;;;;;;4.34;80.51;100146.53;4898361;29;20055;-78
2023/12/29 09:49:08;;;;;;;197.50;109.43;;;;;;;4.32;80.75;100139.78;4898298;29;20166;-79
2023/12/29 09:51:54;;;;;;;102.70;53.95;;;;;;;4.38;80.68;100123.34;4884451;29;20044;-79
2023/12/29 09:54:39;;;;;;;88.40;48.03;;;;;;;4.49;80.31;100120.38;4887662;29;20048;-78
2023/12/29 09:57:25;;;;;;;98.60;51.47;;;;;;;4.68;79.89;100126.25;4901044;29;20106;-78
2023/12/29 10:00:15;;;;;;;178.85;104.95;;;;;;;4.92;79.13;100115.63;4905902;29;20063;-78
2023/12/29 10:03:01;;;;;;;103.97;55.10;;;;;;;5.30;79.24;100099.97;4906690;29;20507;-78
2023/12/29 10:05:51;;;;;;;93.10;50.10;;;;;;;5.60;78.22;100094.81;4898461;29;20404;-78
2023/12/29 10:08:38;;;;;;;160.45;93.80;;;;;;;5.51;77.55;100102.75;4898666;29;20056;-78
2023/12/29 10:11:24;;;;;;;77.82;43.47;;;;;;;5.48;76.82;100092.56;4904514;29;20044;-78
2023/12/29 10:14:50;;;;;;;85.05;44.25;;;;;;;5.50;77.66;100102.94;4897891;29;20060;-78
2023/12/29 10:18:02;;;;;;;79.82;40.67;;;;;;;5.61;77.53;100094.66;4841178;29;20049;-77
2023/12/29 10:20:54;;;;;;;72.47;40.22;;;;;;;5.75;76.80;100085.13;4840959;29;20057;-78
2023/12/29 10:23:43;;;;;;;73.55;41.60;;;;;;;5.99;75.93;100076.22;4899630;29;20526;-80
2023/12/29 10:26:29;;;;;;;66.45;40.83;;;;;;;6.02;76.47;100071.41;4897531;29;20071;-79
2023/12/29 10:29:18;;;;;;;82.22;41.15;;;;;;;6.13;76.22;100061.41;4904949;29;20056;-79
2023/12/29 10:32:04;;;;;;;81.85;40.83;;;;;;;6.39;75.12;100067.09;4897400;29;20403;-80
2023/12/29 10:35:10;;;;;;;77.35;42.72;;;;;;;6.48;74.32;100050.13;4898686;29;20071;-77
2023/12/29 10:38:09;;;;;;;82.68;43.22;;;;;;;6.61;73.99;100054.78;4903866;29;20048;-79
2023/12/29 10:40:54;;;;;;;62.67;36.63;;;;;;;6.74;73.19;100054.16;4899962;29;20055;-80
2023/12/29 10:43:51;;;;;;;81.75;43.85;;;;;;;6.80;73.42;100049.91;4905917;29;20051;-82
2023/12/29 10:46:37;;;;;;;73.72;40.28;;;;;;;6.92;72.80;100041.31;4901474;29;20047;-78
2023/12/29 10:49:23;;;;;;;82.28;44.55;;;;;;;7.03;72.44;100042.69;4899563;29;20060;-78
2023/12/29 10:52:14;;;;;;;85.70;43.40;;;;;;;7.24;71.69;100039.25;4907218;29;20495;-79
2023/12/29 10:55:09;;;;;;;78.20;42.30;;;;;;;7.30;70.99;100025.28;4898936;29;20055;-78
2023/12/29 10:58:00;;;;;;;76.60;43.35;;;;;;;7.39;71.52;100018.03;4900236;29;20051;-78
2023/12/29 11:00:45;;;;;;;86.30;45.47;;;;;;;7.48;70.41;100022.19;4900542;29;20051;-77
2023/12/29 11:03:32;;;;;;;86.05;46.80;;;;;;;7.57;70.63;100017.56;4901970;29;20060;-81
2023/12/29 11:06:17;;;;;;;71.80;37.33;;;;;;;7.69;69.88;100012.59;4901439;29;20071;-80
2023/12/29 11:09:05;;;;;;;62.80;36.13;;;;;;;7.73;69.88;100012.00;4907986;29;20059;-78
2023/12/29 11:11:51;;;;;;;69.18;38.05;;;;;;;7.70;69.23;100001.00;4901005;29;20071;-78
2023/12/29 11:14:37;;;;;;;75.55;40.28;;;;;;;7.79;69.57;100000.66;4900314;29;20048;-77
2023/12/29 11:17:25;;;;;;;69.95;36.58;;;;;;;7.83;69.75;99988.69;4902136;29;20399;-79
2023/12/29 11:20:11;;;;;;;71.85;37.35;;;;;;;7.85;69.61;99983.19;4901909;29;20056;-78
2023/12/29 11:22:56;;;;;;;71.63;38.15;;;;;;;7.86;70.06;99983.00;4900366;29;20060;-77
2023/12/29 11:25:48;;;;;;;59.17;30.48;;;;;;;7.95;69.18;99980.19;4901329;29;20063;-79
2023/12/29 11:28:34;;;;;;;53.92;27.33;;;;;;;7.86;69.48;99975.03;4907371;29;20059;-79
2023/12/29 11:31:20;;;;;;;46.75;25.08;;;;;;;7.85;68.77;99976.06;4907422;29;20052;-80
2023/12/29 11:34:11;;;;;;;40.22;21.92;;;;;;;7.91;68.67;99971.84;4899968;29;20067;-80
2023/12/29 11:37:27;;;;;;;40.83;21.50;;;;;;;8.06;67.71;99963.78;4887120;29;20118;-79
2023/12/29 11:40:21;;;;;;;41.30;23.80;;;;;;;8.14;67.28;99974.22;4900828;29;20054;-78
2023/12/29 11:43:13;;;;;;;41.90;22.33;;;;;;;8.22;66.99;99970.59;4899862;29;20051;-77
2023/12/29 11:45:58;;;;;;;44.60;23.70;;;;;;;8.28;67.28;99967.97;4900021;29;20404;-77
2023/12/29 11:48:57;;;;;;;41.67;22.00;;;;;;;8.43;66.07;99956.44;4900435;29;20075;-80
2023/12/29 11:51:44;;;;;;;38.13;21.10;;;;;;;8.49;65.34;99955.66;4900686;29;20051;-80
2023/12/29 11:54:30;;;;;;;43.03;20.90;;;;;;;8.58;65.42;99947.34;4900947;29;20064;-80
2023/12/29 11:57:31;;;;;;;34.45;19.25;;;;;;;8.77;65.01;99953.72;4900449;29;20399;-78
2023/12/29 12:00:16;;;;;;;31.08;18.60;;;;;;;8.82;64.71;99947.00;4900448;29;20059;-78
2023/12/29 12:03:16;;;;;;;28.92;16.95;;;;;;;8.85;64.30;99939.47;4900107;29;20519;-80
2023/12/29 12:06:03;;;;;;;36.58;20.85;;;;;;;9.00;65.42;99939.31;4899570;29;20064;-80
2023/12/29 12:08:48;;;;;;;33.55;20.75;;;;;;;8.96;64.84;99928.28;4900027;29;20052;-78
2023/12/29 12:11:36;;;;;;;31.15;17.08;;;;;;;8.99;63.87;99921.75;4899824;29;20056;-79
2023/12/29 12:14:51;;;;;;;33.03;19.58;;;;;;;9.07;64.88;99923.41;4905165;29;20047;-78
2023/12/29 12:17:37;;;;;;;46.00;29.00;;;;;;;9.17;64.47;99916.66;4900098;29;20043;-79
2023/12/29 12:20:22;;;;;;;38.55;22.85;;;;;;;9.25;65.13;99919.13;4906523;29;20043;-77
2023/12/29 12:23:17;;;;;;;31.25;20.17;;;;;;;9.38;64.17;99925.44;4900751;29;20391;-79
2023/12/29 12:26:03;;;;;;;34.30;18.45;;;;;;;9.34;63.02;99916.25;4904199;29;20550;-80
2023/12/29 12:28:53;;;;;;;29.65;18.25;;;;;;;9.43;62.75;99915.03;4903508;29;20067;-81
2023/12/29 12:31:53;;;;;;;33.95;20.02;;;;;;;9.46;63.38;99919.91;4899912;29;20518;-77
2023/12/29 12:34:40;;;;;;;47.65;24.77;;;;;;;9.45;63.45;99913.81;4899530;29;20071;-78
2023/12/29 12:37:27;;;;;;;43.95;23.33;;;;;;;9.54;63.34;99914.41;4899418;29;20051;-79
2023/12/29 12:40:29;;;;;;;37.83;21.98;;;;;;;9.62;62.72;99906.25;4900218;29;20063;-80
2023/12/29 12:43:16;;;;;;;37.30;20.85;;;;;;;9.60;62.74;99902.97;4885498;29;20055;-81
2023/12/29 12:46:04;;;;;;;33.78;18.85;;;;;;;9.64;61.53;99898.88;4905934;29;20133;-80